<?xml version="1.0" encoding="UTF-8" standalone="no" ?>
<gpx xmlns="http://www.topografix.com/GPX/1/1" xmlns:xsi="http://www.w3.org/2001/XMLSchema-instance" xsi:schemaLocation="http://www.topografix.com/GPX/1/1 http://www.topografix.com/GPX/1/1/gpx.xsd" version="1.1" creator="VisuGPX - https://www.visugpx.com">
  <metadata>
    <name>CLAIREFONTAINE</name>
  </metadata>
  <trk>
    <name><![CDATA[randogps78-253]]></name>
    <trkseg>
      <trkpt lat="48.61314" lon="1.90752">
        <ele>130</ele>
        <time>2022-03-28T19:18:16Z</time>
      </trkpt>
      <trkpt lat="48.61126" lon="1.9043">
        <ele>129</ele>
        <time>2022-03-28T19:24:35Z</time>
      </trkpt>
      <trkpt lat="48.61126" lon="1.90297">
        <ele>131</ele>
        <time>2022-03-28T19:26:32Z</time>
      </trkpt>
      <trkpt lat="48.61246" lon="1.90078">
        <ele>130</ele>
        <time>2022-03-28T19:30:43Z</time>
      </trkpt>
      <trkpt lat="48.61484" lon="1.89675">
        <ele>129</ele>
        <time>2022-03-28T19:38:40Z</time>
      </trkpt>
      <trkpt lat="48.61663" lon="1.89396">
        <ele>129</ele>
        <time>2022-03-28T19:44:23Z</time>
      </trkpt>
      <trkpt lat="48.61705" lon="1.89508">
        <ele>133</ele>
        <time>2022-03-28T19:46:17Z</time>
      </trkpt>
      <trkpt lat="48.61694" lon="1.89628">
        <ele>133</ele>
        <time>2022-03-28T19:48:04Z</time>
      </trkpt>
      <trkpt lat="48.61762" lon="1.89885">
        <ele>131</ele>
        <time>2022-03-28T19:52:08Z</time>
      </trkpt>
      <trkpt lat="48.61734" lon="1.90018">
        <ele>129</ele>
        <time>2022-03-28T19:54:11Z</time>
      </trkpt>
      <trkpt lat="48.61714" lon="1.90229">
        <ele>129</ele>
        <time>2022-03-28T19:57:19Z</time>
      </trkpt>
      <trkpt lat="48.61723" lon="1.90383">
        <ele>132</ele>
        <time>2022-03-28T19:59:35Z</time>
      </trkpt>
      <trkpt lat="48.61707" lon="1.90541">
        <ele>132</ele>
        <time>2022-03-28T20:01:56Z</time>
      </trkpt>
      <trkpt lat="48.61871" lon="1.90474">
        <ele>134</ele>
        <time>2022-03-28T20:05:43Z</time>
      </trkpt>
      <trkpt lat="48.61949" lon="1.90471">
        <ele>135</ele>
        <time>2022-03-28T20:07:27Z</time>
      </trkpt>
      <trkpt lat="48.6205" lon="1.90519">
        <ele>140</ele>
        <time>2022-03-28T20:09:48Z</time>
      </trkpt>
      <trkpt lat="48.62174" lon="1.90674">
        <ele>151</ele>
        <time>2022-03-28T20:13:23Z</time>
      </trkpt>
      <trkpt lat="48.62218" lon="1.90808">
        <ele>158</ele>
        <time>2022-03-28T20:15:35Z</time>
      </trkpt>
      <trkpt lat="48.62326" lon="1.90996">
        <ele>173</ele>
        <time>2022-03-28T20:19:15Z</time>
      </trkpt>
      <trkpt lat="48.62481" lon="1.91211">
        <ele>179</ele>
        <time>2022-03-28T20:23:55Z</time>
      </trkpt>
      <trkpt lat="48.62419" lon="1.91333">
        <ele>177</ele>
        <time>2022-03-28T20:26:11Z</time>
      </trkpt>
      <trkpt lat="48.62782" lon="1.91709">
        <ele>178</ele>
        <time>2022-03-28T20:35:58Z</time>
      </trkpt>
      <trkpt lat="48.62748" lon="1.9176">
        <ele>178</ele>
        <time>2022-03-28T20:37:02Z</time>
      </trkpt>
      <trkpt lat="48.62808" lon="1.92161">
        <ele>179</ele>
        <time>2022-03-28T20:43:05Z</time>
      </trkpt>
      <trkpt lat="48.62798" lon="1.92285">
        <ele>179</ele>
        <time>2022-03-28T20:44:55Z</time>
      </trkpt>
      <trkpt lat="48.62874" lon="1.92367">
        <ele>178</ele>
        <time>2022-03-28T20:46:59Z</time>
      </trkpt>
      <trkpt lat="48.62894" lon="1.92458">
        <ele>178</ele>
        <time>2022-03-28T20:48:24Z</time>
      </trkpt>
      <trkpt lat="48.62904" lon="1.92559">
        <ele>178</ele>
        <time>2022-03-28T20:49:54Z</time>
      </trkpt>
      <trkpt lat="48.62936" lon="1.92634">
        <ele>176</ele>
        <time>2022-03-28T20:51:13Z</time>
      </trkpt>
      <trkpt lat="48.62994" lon="1.92701">
        <ele>175</ele>
        <time>2022-03-28T20:52:50Z</time>
      </trkpt>
      <trkpt lat="48.63055" lon="1.92847">
        <ele>176</ele>
        <time>2022-03-28T20:55:23Z</time>
      </trkpt>
      <trkpt lat="48.63183" lon="1.9292">
        <ele>175</ele>
        <time>2022-03-28T20:58:25Z</time>
      </trkpt>
      <trkpt lat="48.63247" lon="1.9302">
        <ele>174</ele>
        <time>2022-03-28T21:00:28Z</time>
      </trkpt>
      <trkpt lat="48.63317" lon="1.9315">
        <ele>175</ele>
        <time>2022-03-28T21:02:56Z</time>
      </trkpt>
      <trkpt lat="48.63373" lon="1.93296">
        <ele>174</ele>
        <time>2022-03-28T21:05:25Z</time>
      </trkpt>
      <trkpt lat="48.63401" lon="1.93457">
        <ele>174</ele>
        <time>2022-03-28T21:07:51Z</time>
      </trkpt>
      <trkpt lat="48.63367" lon="1.93527">
        <ele>176</ele>
        <time>2022-03-28T21:09:08Z</time>
      </trkpt>
      <trkpt lat="48.63359" lon="1.938">
        <ele>175</ele>
        <time>2022-03-28T21:13:09Z</time>
      </trkpt>
      <trkpt lat="48.63343" lon="1.93991">
        <ele>174</ele>
        <time>2022-03-28T21:15:59Z</time>
      </trkpt>
      <trkpt lat="48.63359" lon="1.94394">
        <ele>167</ele>
        <time>2022-03-28T21:21:55Z</time>
      </trkpt>
      <trkpt lat="48.63317" lon="1.94534">
        <ele>160</ele>
        <time>2022-03-28T21:24:11Z</time>
      </trkpt>
      <trkpt lat="48.63349" lon="1.94734">
        <ele>146</ele>
        <time>2022-03-28T21:27:12Z</time>
      </trkpt>
      <trkpt lat="48.63462" lon="1.95129">
        <ele>128</ele>
        <time>2022-03-28T21:33:32Z</time>
      </trkpt>
      <trkpt lat="48.6349" lon="1.95271">
        <ele>125</ele>
        <time>2022-03-28T21:35:42Z</time>
      </trkpt>
      <trkpt lat="48.63568" lon="1.95378">
        <ele>122</ele>
        <time>2022-03-28T21:38:03Z</time>
      </trkpt>
      <trkpt lat="48.63728" lon="1.95417">
        <ele>127</ele>
        <time>2022-03-28T21:41:39Z</time>
      </trkpt>
      <trkpt lat="48.6378" lon="1.95284">
        <ele>130</ele>
        <time>2022-03-28T21:43:55Z</time>
      </trkpt>
      <trkpt lat="48.63843" lon="1.95302">
        <ele>140</ele>
        <time>2022-03-28T21:45:21Z</time>
      </trkpt>
      <trkpt lat="48.63959" lon="1.95235">
        <ele>146</ele>
        <time>2022-03-28T21:48:07Z</time>
      </trkpt>
      <trkpt lat="48.63913" lon="1.95338">
        <ele>155</ele>
        <time>2022-03-28T21:49:56Z</time>
      </trkpt>
      <trkpt lat="48.63923" lon="1.95454">
        <ele>166</ele>
        <time>2022-03-28T21:51:39Z</time>
      </trkpt>
      <trkpt lat="48.64041" lon="1.95721">
        <ele>170</ele>
        <time>2022-03-28T21:56:23Z</time>
      </trkpt>
      <trkpt lat="48.64196" lon="1.96094">
        <ele>171</ele>
        <time>2022-03-28T22:02:51Z</time>
      </trkpt>
      <trkpt lat="48.64242" lon="1.96361">
        <ele>174</ele>
        <time>2022-03-28T22:06:54Z</time>
      </trkpt>
      <trkpt lat="48.6425" lon="1.96643">
        <ele>175</ele>
        <time>2022-03-28T22:11:03Z</time>
      </trkpt>
      <trkpt lat="48.64129" lon="1.96862">
        <ele>173</ele>
        <time>2022-03-28T22:15:15Z</time>
      </trkpt>
      <trkpt lat="48.63991" lon="1.96889">
        <ele>171</ele>
        <time>2022-03-28T22:18:21Z</time>
      </trkpt>
      <trkpt lat="48.63843" lon="1.96983">
        <ele>170</ele>
        <time>2022-03-28T22:21:55Z</time>
      </trkpt>
      <trkpt lat="48.63708" lon="1.97004">
        <ele>169</ele>
        <time>2022-03-28T22:24:56Z</time>
      </trkpt>
      <trkpt lat="48.63562" lon="1.97113">
        <ele>152</ele>
        <time>2022-03-28T22:28:33Z</time>
      </trkpt>
      <trkpt lat="48.63373" lon="1.9715">
        <ele>138</ele>
        <time>2022-03-28T22:32:48Z</time>
      </trkpt>
      <trkpt lat="48.63187" lon="1.9725">
        <ele>124</ele>
        <time>2022-03-28T22:37:11Z</time>
      </trkpt>
      <trkpt lat="48.63055" lon="1.97283">
        <ele>122</ele>
        <time>2022-03-28T22:40:10Z</time>
      </trkpt>
      <trkpt lat="48.63022" lon="1.97207">
        <ele>123</ele>
        <time>2022-03-28T22:41:30Z</time>
      </trkpt>
      <trkpt lat="48.62854" lon="1.97217">
        <ele>137</ele>
        <time>2022-03-28T22:45:14Z</time>
      </trkpt>
      <trkpt lat="48.62756" lon="1.97141">
        <ele>143</ele>
        <time>2022-03-28T22:47:41Z</time>
      </trkpt>
      <trkpt lat="48.62499" lon="1.97071">
        <ele>148</ele>
        <time>2022-03-28T22:53:30Z</time>
      </trkpt>
      <trkpt lat="48.62405" lon="1.9708">
        <ele>147</ele>
        <time>2022-03-28T22:55:35Z</time>
      </trkpt>
      <trkpt lat="48.62164" lon="1.97314">
        <ele>136</ele>
        <time>2022-03-28T23:01:57Z</time>
      </trkpt>
      <trkpt lat="48.6212" lon="1.97444">
        <ele>133</ele>
        <time>2022-03-28T23:04:06Z</time>
      </trkpt>
      <trkpt lat="48.61943" lon="1.9711">
        <ele>122</ele>
        <time>2022-03-28T23:10:24Z</time>
      </trkpt>
      <trkpt lat="48.61785" lon="1.96998">
        <ele>118</ele>
        <time>2022-03-28T23:14:17Z</time>
      </trkpt>
      <trkpt lat="48.6165" lon="1.96956">
        <ele>116</ele>
        <time>2022-03-28T23:17:21Z</time>
      </trkpt>
      <trkpt lat="48.61502" lon="1.96986">
        <ele>105</ele>
        <time>2022-03-28T23:20:40Z</time>
      </trkpt>
      <trkpt lat="48.61412" lon="1.97123">
        <ele>106</ele>
        <time>2022-03-28T23:23:30Z</time>
      </trkpt>
      <trkpt lat="48.61179" lon="1.97147">
        <ele>103</ele>
        <time>2022-03-28T23:28:42Z</time>
      </trkpt>
      <trkpt lat="48.61022" lon="1.9718">
        <ele>104</ele>
        <time>2022-03-28T23:32:13Z</time>
      </trkpt>
      <trkpt lat="48.60988" lon="1.97044">
        <ele>106</ele>
        <time>2022-03-28T23:34:22Z</time>
      </trkpt>
      <trkpt lat="48.61143" lon="1.96491">
        <ele>111</ele>
        <time>2022-03-28T23:43:12Z</time>
      </trkpt>
      <trkpt lat="48.61163" lon="1.96203">
        <ele>112</ele>
        <time>2022-03-28T23:47:27Z</time>
      </trkpt>
      <trkpt lat="48.61243" lon="1.96133">
        <ele>115</ele>
        <time>2022-03-28T23:49:30Z</time>
      </trkpt>
      <trkpt lat="48.61255" lon="1.9606">
        <ele>117</ele>
        <time>2022-03-28T23:50:37Z</time>
      </trkpt>
      <trkpt lat="48.61211" lon="1.95833">
        <ele>124</ele>
        <time>2022-03-28T23:54:06Z</time>
      </trkpt>
      <trkpt lat="48.61261" lon="1.95475">
        <ele>129</ele>
        <time>2022-03-28T23:59:28Z</time>
      </trkpt>
      <trkpt lat="48.61283" lon="1.9522">
        <ele>134</ele>
        <time>2022-03-29T00:03:15Z</time>
      </trkpt>
      <trkpt lat="48.61327" lon="1.94895">
        <ele>139</ele>
        <time>2022-03-29T00:08:08Z</time>
      </trkpt>
      <trkpt lat="48.61325" lon="1.94804">
        <ele>142</ele>
        <time>2022-03-29T00:09:28Z</time>
      </trkpt>
      <trkpt lat="48.61414" lon="1.94613">
        <ele>153</ele>
        <time>2022-03-29T00:12:54Z</time>
      </trkpt>
      <trkpt lat="48.61327" lon="1.94516">
        <ele>147</ele>
        <time>2022-03-29T00:15:19Z</time>
      </trkpt>
      <trkpt lat="48.61372" lon="1.94322">
        <ele>153</ele>
        <time>2022-03-29T00:18:20Z</time>
      </trkpt>
      <trkpt lat="48.61364" lon="1.94124">
        <ele>160</ele>
        <time>2022-03-29T00:21:15Z</time>
      </trkpt>
      <trkpt lat="48.61552" lon="1.93788">
        <ele>166</ele>
        <time>2022-03-29T00:27:43Z</time>
      </trkpt>
      <trkpt lat="48.6161" lon="1.93715">
        <ele>167</ele>
        <time>2022-03-29T00:29:24Z</time>
      </trkpt>
      <trkpt lat="48.61654" lon="1.9352">
        <ele>171</ele>
        <time>2022-03-29T00:32:26Z</time>
      </trkpt>
      <trkpt lat="48.61682" lon="1.93223">
        <ele>176</ele>
        <time>2022-03-29T00:36:51Z</time>
      </trkpt>
      <trkpt lat="48.6166" lon="1.92944">
        <ele>177</ele>
        <time>2022-03-29T00:40:58Z</time>
      </trkpt>
      <trkpt lat="48.61709" lon="1.9281">
        <ele>177</ele>
        <time>2022-03-29T00:43:14Z</time>
      </trkpt>
      <trkpt lat="48.6208" lon="1.92049">
        <ele>178</ele>
        <time>2022-03-29T00:57:08Z</time>
      </trkpt>
      <trkpt lat="48.61869" lon="1.91688">
        <ele>178</ele>
        <time>2022-03-29T01:04:13Z</time>
      </trkpt>
      <trkpt lat="48.61777" lon="1.91515">
        <ele>178</ele>
        <time>2022-03-29T01:07:29Z</time>
      </trkpt>
      <trkpt lat="48.61721" lon="1.9146">
        <ele>175</ele>
        <time>2022-03-29T01:08:58Z</time>
      </trkpt>
      <trkpt lat="48.61554" lon="1.9146">
        <ele>169</ele>
        <time>2022-03-29T01:12:41Z</time>
      </trkpt>
      <trkpt lat="48.61564" lon="1.91575">
        <ele>172</ele>
        <time>2022-03-29T01:14:23Z</time>
      </trkpt>
      <trkpt lat="48.6143" lon="1.91597">
        <ele>150</ele>
        <time>2022-03-29T01:17:23Z</time>
      </trkpt>
      <trkpt lat="48.61329" lon="1.91697">
        <ele>150</ele>
        <time>2022-03-29T01:20:04Z</time>
      </trkpt>
      <trkpt lat="48.61311" lon="1.91836">
        <ele>158</ele>
        <time>2022-03-29T01:22:09Z</time>
      </trkpt>
      <trkpt lat="48.61221" lon="1.92012">
        <ele>155</ele>
        <time>2022-03-29T01:25:25Z</time>
      </trkpt>
      <trkpt lat="48.61149" lon="1.92009">
        <ele>151</ele>
        <time>2022-03-29T01:27:01Z</time>
      </trkpt>
      <trkpt lat="48.60952" lon="1.919">
        <ele>135</ele>
        <time>2022-03-29T01:31:41Z</time>
      </trkpt>
      <trkpt lat="48.60904" lon="1.91827">
        <ele>129</ele>
        <time>2022-03-29T01:33:12Z</time>
      </trkpt>
      <trkpt lat="48.60806" lon="1.91918">
        <ele>131</ele>
        <time>2022-03-29T01:35:45Z</time>
      </trkpt>
      <trkpt lat="48.60752" lon="1.91851">
        <ele>128</ele>
        <time>2022-03-29T01:37:19Z</time>
      </trkpt>
      <trkpt lat="48.60631" lon="1.91779">
        <ele>129</ele>
        <time>2022-03-29T01:40:12Z</time>
      </trkpt>
      <trkpt lat="48.6074" lon="1.91745">
        <ele>127</ele>
        <time>2022-03-29T01:42:41Z</time>
      </trkpt>
      <trkpt lat="48.60916" lon="1.91493">
        <ele>128</ele>
        <time>2022-03-29T01:48:04Z</time>
      </trkpt>
      <trkpt lat="48.6093" lon="1.9133">
        <ele>129</ele>
        <time>2022-03-29T01:50:29Z</time>
      </trkpt>
      <trkpt lat="48.6101" lon="1.91217">
        <ele>128</ele>
        <time>2022-03-29T01:52:55Z</time>
      </trkpt>
      <trkpt lat="48.61004" lon="1.91123">
        <ele>128</ele>
        <time>2022-03-29T01:54:19Z</time>
      </trkpt>
      <trkpt lat="48.61227" lon="1.90965">
        <ele>133</ele>
        <time>2022-03-29T01:59:47Z</time>
      </trkpt>
      <trkpt lat="48.61297" lon="1.9082">
        <ele>133</ele>
        <time>2022-03-29T02:02:26Z</time>
      </trkpt>
    </trkseg>
  </trk>
</gpx>